createdAt,value
2023-01-12T00:05:37.951Z,65.50
2023-01-12T00:08:05.375Z,65.38
2023-01-12T00:10:32.285Z,65.42
2023-01-12T00:12:59.141Z,65.47
2023-01-12T00:15:44.754Z,65.71
2023-01-12T00:18:11.648Z,65.73
2023-01-12T00:20:38.485Z,65.90
2023-01-12T00:23:05.490Z,65.96
2023-01-12T00:25:32.334Z,66.20
2023-01-12T00:27:59.144Z,66.27
2023-01-12T00:30:25.936Z,66.41
2023-01-12T00:32:52.670Z,66.50
2023-01-12T00:35:19.544Z,66.61
2023-01-12T00:37:46.397Z,66.52
2023-01-12T00:40:13.236Z,66.80
2023-01-12T00:42:59.023Z,66.89
2023-01-12T00:45:25.846Z,67.08
2023-01-12T00:47:53.648Z,67.28
2023-01-12T00:50:20.592Z,67.43
2023-01-12T00:52:47.421Z,67.39
2023-01-12T00:55:14.609Z,67.47
2023-01-12T00:57:41.423Z,67.53
2023-01-12T01:00:09.200Z,67.52
2023-01-12T01:02:36.111Z,67.42
2023-01-12T01:05:03.101Z,67.26
2023-01-12T01:07:29.898Z,67.37
2023-01-12T01:09:56.701Z,67.33
2023-01-12T01:12:23.540Z,67.41
2023-01-12T01:14:50.394Z,67.65
2023-01-12T01:17:17.295Z,67.71
2023-01-12T01:19:44.157Z,67.79
2023-01-12T01:22:13.023Z,68.05
2023-01-12T01:24:41.015Z,68.02
2023-01-12T01:27:07.866Z,67.88
2023-01-12T01:29:34.634Z,68.05
2023-01-12T01:32:01.546Z,68.21
2023-01-12T01:34:28.268Z,68.15
2023-01-12T01:36:55.036Z,68.11
2023-01-12T01:39:21.892Z,68.18
2023-01-12T01:41:48.711Z,68.10
2023-01-12T01:44:30.996Z,68.08
2023-01-12T01:47:27.725Z,68.19
2023-01-12T01:49:55.171Z,68.19
2023-01-12T01:52:21.953Z,68.63
2023-01-12T01:54:54.917Z,68.58
2023-01-12T01:57:24.661Z,68.79
2023-01-12T01:59:53.133Z,68.73
2023-01-12T02:02:19.939Z,68.88
2023-01-12T02:04:46.715Z,68.88
2023-01-12T02:07:13.521Z,69.01
2023-01-12T02:09:40.345Z,68.92
2023-01-12T02:12:26.321Z,68.94
2023-01-12T02:15:12.044Z,68.97
2023-01-12T02:18:14.379Z,69.05
2023-01-12T02:21:05.768Z,69.02
2023-01-12T02:24:05.028Z,69.21
2023-01-12T02:27:10.044Z,69.33
2023-01-12T02:29:57.821Z,69.43
2023-01-12T02:32:36.868Z,69.54
2023-01-12T02:35:22.452Z,69.57
2023-01-12T02:37:58.305Z,69.65
2023-01-12T02:40:59.561Z,69.47
2023-01-12T02:43:29.155Z,69.50
2023-01-12T02:46:01.631Z,69.47
2023-01-12T02:48:31.288Z,69.42
2023-01-12T02:51:14.167Z,69.45
2023-01-12T02:53:50.141Z,69.69
2023-01-12T02:56:28.215Z,69.72
2023-01-12T02:58:56.868Z,69.77
2023-01-12T03:01:24.431Z,69.78
2023-01-12T03:03:51.235Z,69.82
2023-01-12T03:06:18.457Z,69.87
2023-01-12T03:08:46.228Z,69.97
2023-01-12T03:11:17.052Z,70.10
2023-01-12T03:13:48.903Z,70.22
2023-01-12T03:16:18.123Z,70.08
2023-01-12T03:18:51.382Z,70.17
2023-01-12T03:21:30.784Z,70.02
2023-01-12T03:24:02.833Z,70.16
2023-01-12T03:26:29.654Z,70.14
2023-01-12T03:29:09.612Z,70.23
2023-01-12T03:31:36.950Z,70.21
2023-01-12T03:34:05.010Z,70.32
2023-01-12T03:36:38.697Z,70.33
2023-01-12T03:39:13.765Z,70.55
2023-01-12T03:41:45.922Z,70.45
2023-01-12T03:44:19.460Z,70.51
2023-01-12T03:46:53.978Z,70.48
2023-01-12T03:49:25.478Z,70.68
2023-01-12T03:51:52.308Z,70.49
2023-01-12T03:54:19.294Z,70.92
2023-01-12T03:56:46.158Z,70.93
2023-01-12T03:59:12.913Z,70.97
2023-01-12T04:01:41.863Z,70.98
2023-01-12T04:04:08.716Z,70.91
2023-01-12T04:06:35.510Z,71.13
2023-01-12T04:09:02.427Z,71.40
2023-01-12T04:11:47.968Z,71.32
2023-01-12T04:14:14.851Z,71.52
2023-01-12T04:16:41.654Z,71.56
2023-01-12T04:19:08.709Z,71.26
2023-01-12T04:21:54.242Z,71.38
2023-01-12T04:24:21.141Z,71.43
2023-01-12T04:26:48.009Z,71.59
2023-01-12T04:29:14.826Z,71.70
2023-01-12T04:31:41.705Z,71.63
2023-01-12T04:34:08.815Z,71.80
2023-01-12T04:36:35.877Z,72.03
2023-01-12T04:39:03.128Z,72.05
2023-01-12T04:41:31.100Z,72.05
2023-01-12T04:43:58.352Z,72.04
2023-01-12T04:46:25.558Z,71.83
2023-01-12T04:48:52.654Z,71.80
2023-01-12T04:51:19.673Z,71.64
2023-01-12T04:53:48.295Z,71.93
2023-01-12T04:56:15.363Z,71.80
2023-01-12T04:58:42.553Z,71.94
2023-01-12T05:01:14.885Z,71.92
2023-01-12T05:03:43.001Z,71.63
2023-01-12T05:06:10.218Z,71.52
2023-01-12T05:08:56.013Z,71.35
2023-01-12T05:11:28.693Z,71.39
2023-01-12T05:13:56.905Z,71.12
2023-01-12T05:16:24.789Z,71.22
2023-01-12T05:18:53.496Z,71.01
2023-01-12T05:21:22.569Z,70.87
2023-01-12T05:23:51.290Z,70.81
2023-01-12T05:26:18.606Z,70.81
2023-01-12T05:28:48.988Z,70.79
2023-01-12T05:31:16.346Z,71.19
2023-01-12T05:33:43.631Z,71.59
2023-01-12T05:36:12.474Z,71.62
2023-01-12T05:38:39.796Z,71.78
2023-01-12T05:41:10.404Z,71.85
2023-01-12T05:43:52.956Z,71.94
2023-01-12T05:46:28.235Z,71.91
2023-01-12T05:48:55.943Z,72.03
2023-01-12T05:51:23.725Z,72.10
2023-01-12T05:53:50.890Z,72.00
2023-01-12T05:56:20.127Z,71.94
2023-01-12T05:58:51.629Z,71.66
2023-01-12T06:01:18.628Z,71.72
2023-01-12T06:03:51.912Z,71.82
2023-01-12T06:06:19.996Z,71.87
2023-01-12T06:08:47.355Z,71.84
2023-01-12T06:11:32.897Z,71.85
2023-01-12T06:14:00.768Z,71.90
2023-01-12T06:16:28.275Z,71.86
2023-01-12T06:18:55.981Z,71.86
2023-01-12T06:21:25.037Z,71.65
2023-01-12T06:23:52.110Z,71.70
2023-01-12T06:26:19.286Z,71.63
2023-01-12T06:28:46.488Z,71.29
2023-01-12T06:31:13.693Z,71.34
2023-01-12T06:33:41.269Z,71.21
2023-01-12T06:36:08.820Z,71.30
2023-01-12T06:38:37.362Z,71.04
2023-01-12T06:41:29.339Z,71.24
2023-01-12T06:43:57.035Z,70.89
2023-01-12T06:46:24.352Z,70.65
2023-01-12T06:48:51.642Z,70.59
2023-01-12T06:51:18.625Z,70.63
2023-01-12T06:53:45.760Z,70.91
2023-01-12T06:56:13.149Z,70.51
2023-01-12T06:58:43.673Z,70.62
2023-01-12T07:01:13.936Z,70.66
2023-01-12T07:03:41.029Z,70.65
2023-01-12T07:06:08.405Z,70.31
2023-01-12T07:08:35.966Z,70.28
2023-01-12T07:11:04.410Z,70.14
2023-01-12T07:13:31.807Z,70.06
2023-01-12T07:16:02.028Z,70.21
2023-01-12T10:54:28.217Z,67.05
2023-01-12T10:56:57.586Z,66.52
2023-01-12T10:59:29.638Z,66.14
2023-01-12T11:02:06.701Z,66.40
2023-01-12T11:04:43.993Z,66.25
2023-01-12T11:07:22.347Z,66.23
2023-01-12T11:09:49.367Z,66.42
2023-01-12T11:12:20.350Z,66.22
2023-01-12T11:15:14.980Z,66.07
2023-01-12T11:17:49.595Z,66.64
2023-01-12T11:20:54.558Z,66.81
2023-01-12T11:23:33.258Z,66.54
2023-01-12T11:26:01.323Z,66.29
2023-01-12T11:28:34.695Z,66.45
2023-01-12T11:31:15.868Z,66.16
2023-01-12T11:33:55.132Z,66.33
2023-01-12T11:36:30.643Z,66.27
2023-01-12T11:39:01.805Z,66.31
2023-01-12T11:41:34.327Z,66.66
2023-01-12T11:44:28.553Z,66.53
2023-01-12T11:46:59.768Z,66.29
2023-01-12T11:49:39.575Z,66.21
2023-01-12T11:52:09.076Z,66.07
2023-01-12T11:54:36.431Z,66.14
2023-01-12T11:57:25.101Z,65.68
2023-01-12T12:00:01.270Z,65.92
2023-01-12T12:02:39.010Z,65.85
2023-01-12T12:05:18.927Z,65.92
2023-01-12T12:07:49.665Z,65.99
2023-01-12T12:10:24.054Z,65.87
2023-01-12T12:13:11.229Z,65.99
2023-01-12T12:15:56.193Z,65.63
2023-01-12T12:18:41.636Z,65.71
2023-01-12T12:21:32.634Z,65.83
2023-01-12T12:24:06.743Z,66.07
2023-01-12T12:26:39.719Z,66.09
2023-01-12T12:29:19.982Z,66.08
2023-01-12T12:31:52.982Z,66.17
2023-01-12T12:34:27.903Z,66.10
2023-01-12T12:37:02.933Z,65.94
2023-01-12T12:39:56.072Z,65.85
2023-01-12T12:43:06.404Z,65.74
2023-01-12T12:45:43.333Z,65.70
2023-01-12T12:48:21.135Z,65.38
2023-01-12T12:51:03.122Z,65.26
2023-01-12T12:53:33.408Z,65.19
2023-01-12T12:56:11.156Z,64.76
2023-01-12T12:58:44.984Z,64.76
2023-01-12T13:01:21.330Z,64.58
2023-01-12T13:03:49.194Z,64.73
2023-01-12T13:06:29.345Z,64.65
2023-01-12T13:08:57.626Z,64.64
2023-01-12T18:09:26.106Z,69.14
2023-01-12T18:11:52.993Z,68.44
2023-01-12T18:14:21.485Z,68.42
2023-01-12T18:16:48.284Z,68.33
2023-01-12T18:19:15.152Z,68.61
2023-01-12T18:21:42.082Z,68.72
2023-01-12T18:24:09.005Z,68.83
2023-01-12T18:26:36.087Z,68.63
2023-01-12T18:29:04.474Z,68.33
2023-01-12T18:31:32.281Z,68.19
2023-01-12T18:34:06.297Z,68.27
2023-01-12T18:36:37.870Z,68.19
2023-01-12T18:39:06.190Z,68.38
2023-01-12T18:41:51.931Z,67.94
2023-01-12T18:44:18.730Z,67.98
2023-01-12T18:47:04.281Z,67.69
2023-01-12T18:49:33.375Z,67.93
2023-01-12T18:52:18.990Z,67.66
2023-01-12T18:54:48.236Z,67.73
2023-01-12T18:57:19.310Z,67.82
2023-01-12T18:59:46.754Z,67.86
2023-01-12T19:02:13.927Z,67.75
2023-01-12T19:04:43.726Z,67.99
2023-01-12T19:07:12.916Z,68.05
2023-01-12T19:09:39.860Z,67.90
2023-01-12T19:12:06.908Z,67.96
2023-01-12T19:14:52.799Z,68.02
2023-01-12T19:17:32.777Z,68.04
2023-01-12T19:20:01.547Z,68.04
2023-01-12T19:22:47.225Z,68.16
2023-01-12T19:25:33.926Z,67.92
2023-01-12T19:28:19.830Z,67.79
2023-01-12T19:30:46.937Z,67.62
2023-01-12T19:33:17.367Z,67.50
2023-01-12T19:35:45.359Z,67.30
2023-01-12T19:38:15.382Z,67.37
2023-01-12T19:40:49.687Z,66.95
2023-01-12T19:43:20.454Z,66.97
2023-01-12T19:45:49.634Z,66.74
2023-01-12T19:48:17.660Z,66.74
2023-01-12T19:50:44.956Z,66.60
2023-01-12T19:53:13.472Z,66.37
2023-01-12T19:55:41.276Z,66.10
2023-01-12T19:58:09.498Z,66.25
2023-01-12T20:00:39.283Z,66.48
2023-01-12T20:03:06.394Z,66.51
2023-01-12T20:05:33.305Z,66.64
2023-01-12T20:08:00.227Z,66.58
2023-01-12T20:10:27.116Z,66.56
2023-01-12T20:12:54.838Z,66.29
2023-01-12T20:15:22.029Z,66.40
2023-01-12T20:17:49.444Z,66.25
2023-01-12T20:20:16.999Z,66.25
2023-01-12T20:22:44.145Z,66.49
2023-01-12T20:25:11.087Z,66.48
2023-01-12T20:27:38.135Z,66.56
2023-01-12T20:30:06.017Z,66.58
2023-01-12T20:32:34.981Z,66.74
2023-01-12T20:35:05.927Z,66.71
2023-01-12T20:37:33.799Z,66.49
2023-01-12T20:40:00.954Z,66.45
2023-01-12T20:42:29.296Z,66.57
2023-01-12T20:44:57.587Z,66.69
2023-01-12T20:47:28.480Z,66.66
2023-01-12T20:49:55.896Z,66.72
2023-01-12T20:52:23.867Z,66.66
2023-01-12T20:54:50.745Z,66.37
2023-01-12T20:57:17.720Z,66.23
2023-01-12T20:59:44.689Z,66.23
2023-01-12T21:02:29.871Z,66.14
2023-01-12T21:04:56.678Z,66.46
2023-01-12T21:07:23.659Z,66.48
2023-01-12T21:09:50.500Z,66.78
2023-01-12T21:12:17.352Z,66.97
2023-01-12T21:14:44.131Z,67.01
2023-01-12T21:17:11.749Z,67.22
2023-01-12T21:19:38.692Z,67.14
2023-01-12T21:22:05.501Z,67.09
2023-01-12T21:24:32.478Z,67.07
2023-01-12T21:26:59.430Z,67.10
2023-01-12T21:29:26.413Z,66.78
2023-01-12T21:31:53.463Z,66.77
2023-01-12T21:34:20.504Z,66.58
2023-01-12T21:36:47.521Z,66.69
2023-01-12T21:39:14.533Z,66.76
2023-01-12T21:42:00.219Z,66.91
2023-01-12T21:44:27.807Z,67.20
2023-01-12T21:46:54.571Z,67.21
2023-01-12T21:49:21.458Z,67.47
2023-01-12T21:51:48.258Z,67.60
2023-01-12T21:54:15.071Z,67.80
2023-01-12T21:56:41.918Z,67.91
2023-01-12T21:59:10.452Z,67.94
2023-01-12T22:01:37.235Z,68.06
2023-01-12T22:04:04.359Z,68.35
2023-01-12T22:06:31.338Z,68.75
2023-01-12T22:08:58.715Z,69.51
2023-01-12T22:11:25.583Z,69.67
2023-01-12T22:13:52.572Z,69.95
2023-01-12T22:16:19.441Z,70.19
2023-01-12T22:18:49.393Z,70.54
2023-01-12T22:21:17.136Z,70.57
2023-01-12T22:23:44.054Z,70.72
2023-01-12T22:26:12.553Z,70.82
2023-01-12T22:28:41.176Z,70.72
2023-01-12T22:31:09.154Z,71.17
2023-01-12T22:33:36.685Z,71.21
2023-01-12T22:36:04.665Z,70.94
2023-01-12T22:38:31.565Z,70.90
2023-01-12T22:41:06.386Z,71.03
2023-01-12T22:43:38.717Z,70.96
2023-01-12T22:46:05.579Z,70.90
2023-01-12T22:48:32.488Z,71.07
2023-01-12T22:50:59.886Z,71.07
2023-01-12T22:53:26.723Z,71.46
2023-01-12T22:55:53.549Z,71.48
2023-01-12T22:58:20.424Z,71.48
2023-01-12T23:00:48.903Z,71.61
2023-01-12T23:03:15.987Z,71.35
2023-01-12T23:05:46.010Z,71.43
2023-01-12T23:08:13.939Z,71.52
2023-01-12T23:10:41.498Z,71.44
2023-01-12T23:13:11.853Z,71.61
2023-01-12T23:15:43.504Z,71.67
2023-01-12T23:18:10.727Z,71.63
2023-01-12T23:20:38.390Z,71.94
2023-01-12T23:23:06.046Z,72.03
2023-01-12T23:25:33.545Z,72.11
2023-01-12T23:28:00.756Z,72.18
2023-01-12T23:30:30.868Z,72.19
2023-01-12T23:33:01.410Z,72.42
2023-01-12T23:35:28.349Z,72.48
2023-01-12T23:37:55.300Z,72.48
2023-01-12T23:40:22.257Z,72.53
2023-01-12T23:42:49.287Z,72.21
2023-01-12T23:45:16.339Z,71.96
2023-01-12T23:47:43.289Z,71.61
2023-01-12T23:50:11.576Z,71.48
2023-01-12T23:52:38.567Z,71.59
2023-01-12T23:55:05.958Z,71.74
2023-01-12T23:57:33.921Z,71.43
